Time;durP1;ratioP1;P1;durP2;ratioP2;P2;SDS_P1;SDS_P2;PMS_P1;PMS_P2;Temp;Humidity;BMP_temperature;BMP_pressure;BME280_temperature;BME280_humidity;BME280_pressure;Samples;Min_cycle;Max_cycle;Signal;HPM_P1;HPM_P2
2023/11/20 00:03:50;;;;;;;20.85;12.80;;;;;;;;;;12885280;22;20023;-67
2023/11/20 00:08:46;;;;;;;20.05;11.73;;;;;;;;;;12885635;22;20029;-69
2023/11/20 00:13:42;;;;;;;22.55;11.35;;;;;;;;;;12880866;22;20018;-69
2023/11/20 00:18:39;;;;;;;25.13;11.82;;;;;;;;;;12884349;22;20062;-69
2023/11/20 00:23:35;;;;;;;15.85;10.45;;;;;;;;;;12883744;22;20464;-69
2023/11/20 00:28:32;;;;;;;16.83;10.48;;;;;;;;;;12885362;22;20023;-68
2023/11/20 00:33:28;;;;;;;16.17;10.88;;;;;;;;;;12878981;22;20076;-68
2023/11/20 00:38:24;;;;;;;18.35;9.43;;;;;;;;;;12885454;22;20444;-68
2023/11/20 00:43:21;;;;;;;19.20;10.35;;;;;;;;;;12884936;22;20019;-68
2023/11/20 00:48:17;;;;;;;13.80;9.88;;;;;;;;;;12885011;22;20023;-68
2023/11/20 00:53:13;;;;;;;21.45;9.65;;;;;;;;;;12884856;22;20026;-68
2023/11/20 00:58:10;;;;;;;13.82;9.85;;;;;;;;;;12882333;22;20029;-66
2023/11/20 01:03:06;;;;;;;19.52;13.02;;;;;;;;;;12885136;22;20022;-66
2023/11/20 01:08:02;;;;;;;26.67;11.63;;;;;;;;;;12884778;22;20026;-67
2023/11/20 01:12:59;;;;;;;16.23;11.55;;;;;;;;;;12885080;22;20080;-68
2023/11/20 01:17:56;;;;;;;19.98;12.30;;;;;;;;;;12885102;22;20019;-68
2023/11/20 01:22:52;;;;;;;23.88;10.48;;;;;;;;;;12882245;22;20018;-69
2023/11/20 01:27:49;;;;;;;16.17;11.20;;;;;;;;;;12883931;22;20018;-68
2023/11/20 01:32:46;;;;;;;18.73;12.25;;;;;;;;;;12884631;22;20412;-68
2023/11/20 01:37:43;;;;;;;17.00;11.05;;;;;;;;;;12873446;22;20027;-69
2023/11/20 01:42:39;;;;;;;14.90;11.18;;;;;;;;;;12884899;22;20027;-70
2023/11/20 01:47:37;;;;;;;14.73;10.82;;;;;;;;;;12888647;22;20433;-69
2023/11/20 01:52:34;;;;;;;11.70;9.93;;;;;;;;;;12887463;22;20076;-69
2023/11/20 01:57:30;;;;;;;11.73;9.90;;;;;;;;;;12886688;22;20363;-69
2023/11/20 02:02:27;;;;;;;12.73;10.48;;;;;;;;;;12888392;22;20476;-69
2023/11/20 02:12:36;;;;;;;12.88;10.15;;;;;;;;;;12760461;22;20019;-69
2023/11/20 02:17:32;;;;;;;18.35;11.48;;;;;;;;;;12819982;22;20019;-69
2023/11/20 02:22:29;;;;;;;11.60;9.85;;;;;;;;;;12869794;22;20038;-69
2023/11/20 02:27:35;;;;;;;12.07;10.15;;;;;;;;;;12884037;22;20038;-69
2023/11/20 02:32:32;;;;;;;17.10;10.63;;;;;;;;;;12884069;22;20049;-69
2023/11/20 02:37:29;;;;;;;13.25;10.52;;;;;;;;;;12883741;22;20102;-69
2023/11/20 02:42:25;;;;;;;15.35;10.93;;;;;;;;;;12870399;22;20023;-69
2023/11/20 02:47:22;;;;;;;13.10;10.65;;;;;;;;;;12885414;22;20037;-68
2023/11/20 02:52:19;;;;;;;16.85;10.88;;;;;;;;;;12882507;22;20019;-68
2023/11/20 02:57:15;;;;;;;14.25;11.10;;;;;;;;;;12882985;22;20030;-69
2023/11/20 03:02:12;;;;;;;16.77;10.65;;;;;;;;;;12881988;22;20475;-68
2023/11/20 03:07:09;;;;;;;17.55;11.15;;;;;;;;;;12885834;22;20493;-69
2023/11/20 03:12:05;;;;;;;14.80;9.57;;;;;;;;;;12882031;22;20118;-69
2023/11/20 03:17:02;;;;;;;14.25;10.90;;;;;;;;;;12884015;22;20026;-69
2023/11/20 03:21:59;;;;;;;14.15;10.27;;;;;;;;;;12883393;22;20046;-69
2023/11/20 03:26:56;;;;;;;13.05;10.98;;;;;;;;;;12882689;22;20054;-68
2023/11/20 03:31:52;;;;;;;16.50;11.75;;;;;;;;;;12882433;22;20026;-68
2023/11/20 03:36:49;;;;;;;20.02;12.43;;;;;;;;;;12884511;22;20406;-69
2023/11/20 03:41:45;;;;;;;15.52;12.27;;;;;;;;;;12880642;22;20026;-70
2023/11/20 03:46:42;;;;;;;18.55;12.80;;;;;;;;;;12875697;22;20023;-69
2023/11/20 03:51:39;;;;;;;19.02;12.75;;;;;;;;;;12873066;22;20076;-69
2023/11/20 03:56:35;;;;;;;19.83;12.82;;;;;;;;;;12880843;22;20480;-69
2023/11/20 04:01:32;;;;;;;22.60;14.35;;;;;;;;;;12881377;22;20034;-68
2023/11/20 04:06:28;;;;;;;20.00;14.30;;;;;;;;;;12881615;22;20050;-68
2023/11/20 04:11:24;;;;;;;15.95;13.35;;;;;;;;;;12879948;22;20029;-68
2023/11/20 04:16:21;;;;;;;17.50;13.18;;;;;;;;;;12878017;22;20081;-68
2023/11/20 04:21:18;;;;;;;18.75;13.68;;;;;;;;;;12879439;22;20097;-68
2023/11/20 04:26:14;;;;;;;20.40;13.23;;;;;;;;;;12879051;22;20030;-68
2023/11/20 04:31:11;;;;;;;17.92;13.77;;;;;;;;;;12875651;22;20034;-68
2023/11/20 04:36:09;;;;;;;19.52;14.02;;;;;;;;;;12883193;22;20030;-69
2023/11/20 04:41:05;;;;;;;21.67;14.02;;;;;;;;;;12881495;22;20084;-70
2023/11/20 04:46:01;;;;;;;19.35;14.38;;;;;;;;;;12877653;22;20106;-70
2023/11/20 04:50:58;;;;;;;21.23;14.52;;;;;;;;;;12871141;22;20029;-70
2023/11/20 04:55:54;;;;;;;19.38;14.65;;;;;;;;;;12882189;22;20022;-70
2023/11/20 05:00:51;;;;;;;21.17;15.88;;;;;;;;;;12880975;22;20111;-70
2023/11/20 05:05:47;;;;;;;28.92;16.42;;;;;;;;;;12881778;22;20019;-70
2023/11/20 05:10:44;;;;;;;23.85;16.85;;;;;;;;;;12880265;22;20050;-70
2023/11/20 05:15:40;;;;;;;17.60;15.32;;;;;;;;;;12880655;22;20224;-70
2023/11/20 05:20:38;;;;;;;23.65;16.63;;;;;;;;;;12885520;22;20029;-70
2023/11/20 05:25:35;;;;;;;27.00;16.48;;;;;;;;;;12889849;22;20022;-71
2023/11/20 05:30:31;;;;;;;27.20;15.32;;;;;;;;;;12885877;22;20023;-71
2023/11/20 05:35:27;;;;;;;20.20;15.55;;;;;;;;;;12881171;22;20387;-70
2023/11/20 05:40:24;;;;;;;25.85;16.73;;;;;;;;;;12886445;22;20027;-70
2023/11/20 05:45:21;;;;;;;24.30;16.00;;;;;;;;;;12891065;22;20029;-70
2023/11/20 05:50:18;;;;;;;23.20;16.10;;;;;;;;;;12883713;22;20120;-70
2023/11/20 05:55:14;;;;;;;19.25;15.32;;;;;;;;;;12887997;22;20023;-71
2023/11/20 06:00:11;;;;;;;18.45;15.18;;;;;;;;;;12888896;22;20336;-71
2023/11/20 06:05:08;;;;;;;21.25;15.52;;;;;;;;;;12889343;22;20019;-71
2023/11/20 06:10:06;;;;;;;18.27;14.25;;;;;;;;;;12882193;22;20030;-71
2023/11/20 06:15:04;;;;;;;27.65;14.98;;;;;;;;;;12882381;22;20656;-72
2023/11/20 06:20:00;;;;;;;15.57;13.88;;;;;;;;;;12886875;22;20022;-72
2023/11/20 06:24:58;;;;;;;17.52;14.65;;;;;;;;;;12890739;22;20015;-72
2023/11/20 06:29:54;;;;;;;17.63;13.93;;;;;;;;;;12887452;22;20404;-72
2023/11/20 06:34:51;;;;;;;22.02;15.95;;;;;;;;;;12883968;22;20226;-73
2023/11/20 06:39:47;;;;;;;22.30;16.42;;;;;;;;;;12883886;22;20019;-72
2023/11/20 06:44:43;;;;;;;22.52;16.90;;;;;;;;;;12887096;22;20341;-72
2023/11/20 06:49:41;;;;;;;29.45;18.17;;;;;;;;;;12886270;22;20027;-72
2023/11/20 06:54:37;;;;;;;28.17;18.52;;;;;;;;;;12883116;22;20029;-71
2023/11/20 06:59:33;;;;;;;23.30;16.88;;;;;;;;;;12880242;22;20046;-72
2023/11/20 07:04:36;;;;;;;27.90;18.70;;;;;;;;;;12883904;22;20034;-72
2023/11/20 07:09:34;;;;;;;28.17;18.10;;;;;;;;;;12879501;22;20110;-72
2023/11/20 07:14:30;;;;;;;30.40;19.00;;;;;;;;;;12884385;22;20456;-73
2023/11/20 07:19:27;;;;;;;31.77;20.48;;;;;;;;;;12882009;22;20529;-72
2023/11/20 07:24:25;;;;;;;34.28;20.25;;;;;;;;;;12885653;22;20019;-72
2023/11/20 07:29:21;;;;;;;24.67;18.40;;;;;;;;;;12886491;22;20027;-72
2023/11/20 07:34:19;;;;;;;22.98;16.85;;;;;;;;;;12881496;22;20500;-72
2023/11/20 07:39:18;;;;;;;35.38;20.23;;;;;;;;;;12883065;22;20399;-73
2023/11/20 07:44:14;;;;;;;27.73;18.80;;;;;;;;;;12886403;22;20399;-72
2023/11/20 07:49:11;;;;;;;31.42;22.17;;;;;;;;;;12884912;22;20356;-72
2023/11/20 07:54:08;;;;;;;31.80;21.50;;;;;;;;;;12880958;22;20416;-72
2023/11/20 07:59:04;;;;;;;34.60;21.40;;;;;;;;;;12883132;22;20027;-72
2023/11/20 08:04:02;;;;;;;32.80;22.48;;;;;;;;;;12885347;22;20033;-71
2023/11/20 08:08:58;;;;;;;34.22;22.67;;;;;;;;;;12885806;22;20045;-72
2023/11/20 08:13:55;;;;;;;35.88;22.55;;;;;;;;;;12882336;22;20045;-71
2023/11/20 08:18:52;;;;;;;38.38;22.95;;;;;;;;;;12882437;22;20026;-72
2023/11/20 08:23:49;;;;;;;35.30;21.95;;;;;;;;;;12880214;22;20082;-72
2023/11/20 08:28:45;;;;;;;34.10;22.20;;;;;;;;;;12885344;22;20045;-72
2023/11/20 08:33:42;;;;;;;33.42;22.13;;;;;;;;;;12880874;22;20026;-71
2023/11/20 08:38:38;;;;;;;36.10;23.60;;;;;;;;;;12883132;22;20018;-72
2023/11/20 08:43:35;;;;;;;37.08;22.77;;;;;;;;;;12884485;22;20034;-72
2023/11/20 08:48:31;;;;;;;33.92;23.30;;;;;;;;;;12885392;22;20030;-72
2023/11/20 08:53:27;;;;;;;40.03;22.35;;;;;;;;;;12881792;22;20467;-72
2023/11/20 08:58:24;;;;;;;36.00;24.08;;;;;;;;;;12881132;22;20023;-72
2023/11/20 09:03:20;;;;;;;41.15;24.30;;;;;;;;;;12884258;22;20110;-72
2023/11/20 09:08:17;;;;;;;39.28;22.83;;;;;;;;;;12885212;22;20026;-72
2023/11/20 09:13:13;;;;;;;38.60;23.50;;;;;;;;;;12881082;22;20023;-72
2023/11/20 09:18:12;;;;;;;38.38;24.17;;;;;;;;;;12880774;22;20022;-72
2023/11/20 09:23:08;;;;;;;40.20;23.70;;;;;;;;;;12884632;22;20027;-72
2023/11/20 09:28:04;;;;;;;36.47;23.77;;;;;;;;;;12884769;22;20026;-72
2023/11/20 09:33:01;;;;;;;44.97;26.35;;;;;;;;;;12880565;22;20034;-72
2023/11/20 09:37:58;;;;;;;38.30;23.08;;;;;;;;;;12882524;22;20411;-72
2023/11/20 09:42:55;;;;;;;39.83;24.17;;;;;;;;;;12882373;22;20402;-72
2023/11/20 09:47:52;;;;;;;43.58;23.50;;;;;;;;;;12883327;22;20054;-72
2023/11/20 09:52:50;;;;;;;38.28;24.60;;;;;;;;;;12880959;22;20037;-72
2023/11/20 09:57:46;;;;;;;38.67;22.02;;;;;;;;;;12881897;22;20410;-71
2023/11/20 10:02:46;;;;;;;40.10;24.98;;;;;;;;;;12882598;22;20092;-71
2023/11/20 10:07:43;;;;;;;35.67;23.27;;;;;;;;;;12888024;22;20023;-72
2023/11/20 10:12:40;;;;;;;31.88;20.98;;;;;;;;;;12884714;22;20081;-72
2023/11/20 10:17:36;;;;;;;39.92;22.58;;;;;;;;;;12884841;22;20022;-72
2023/11/20 10:22:36;;;;;;;31.23;21.48;;;;;;;;;;12884876;22;20403;-72
2023/11/20 10:27:32;;;;;;;35.03;21.67;;;;;;;;;;12887546;22;20023;-72
2023/11/20 10:32:29;;;;;;;33.17;22.35;;;;;;;;;;12878454;22;20112;-72
2023/11/20 10:37:25;;;;;;;37.80;23.42;;;;;;;;;;12884793;22;20031;-72
2023/11/20 10:42:22;;;;;;;35.78;21.40;;;;;;;;;;12885313;22;20113;-72
2023/11/20 10:47:19;;;;;;;36.60;23.10;;;;;;;;;;12912123;22;20030;-72
2023/11/20 10:52:18;;;;;;;41.45;23.00;;;;;;;;;;12884391;22;20037;-73
2023/11/20 10:57:16;;;;;;;40.50;23.45;;;;;;;;;;12885156;22;20072;-72
2023/11/20 11:02:17;;;;;;;41.25;24.00;;;;;;;;;;12885371;22;20081;-72
2023/11/20 11:07:15;;;;;;;35.53;23.17;;;;;;;;;;12886719;22;20023;-72
2023/11/20 11:12:12;;;;;;;38.20;22.33;;;;;;;;;;12883099;22;20052;-72
2023/11/20 11:17:09;;;;;;;30.52;19.73;;;;;;;;;;12883668;22;20026;-72
2023/11/20 11:22:10;;;;;;;29.45;18.23;;;;;;;;;;12884460;22;20072;-72
2023/11/20 11:27:12;;;;;;;26.88;20.17;;;;;;;;;;12887184;22;20047;-72
2023/11/20 11:32:12;;;;;;;31.05;21.48;;;;;;;;;;12883737;22;20033;-73
2023/11/20 11:37:09;;;;;;;28.33;19.40;;;;;;;;;;12884583;22;20061;-73
2023/11/20 11:42:13;;;;;;;33.20;20.35;;;;;;;;;;12885210;22;20034;-72
2023/11/20 11:47:13;;;;;;;26.98;18.27;;;;;;;;;;12885996;22;20038;-72
2023/11/20 11:52:09;;;;;;;25.75;18.60;;;;;;;;;;12882587;22;20027;-72
2023/11/20 11:57:09;;;;;;;23.58;18.55;;;;;;;;;;12883680;22;20027;-72
2023/11/20 12:02:06;;;;;;;27.48;19.85;;;;;;;;;;12884646;22;20026;-71
2023/11/20 12:07:04;;;;;;;28.00;19.65;;;;;;;;;;12883862;22;20026;-72
2023/11/20 12:12:01;;;;;;;25.85;18.33;;;;;;;;;;12880758;22;20110;-72
2023/11/20 12:17:01;;;;;;;24.35;18.52;;;;;;;;;;12878608;22;20023;-72
2023/11/20 12:21:58;;;;;;;21.15;16.90;;;;;;;;;;12882839;22;20073;-72
2023/11/20 12:26:56;;;;;;;22.95;17.48;;;;;;;;;;12885537;22;20425;-72
2023/11/20 12:31:53;;;;;;;19.17;16.95;;;;;;;;;;12882577;22;20022;-71
2023/11/20 12:36:50;;;;;;;26.70;17.50;;;;;;;;;;12884093;22;20717;-73
2023/11/20 12:41:46;;;;;;;22.65;17.23;;;;;;;;;;12882854;22;20488;-72
2023/11/20 12:46:42;;;;;;;16.75;15.05;;;;;;;;;;12886524;22;20384;-72
2023/11/20 12:51:41;;;;;;;16.10;10.45;;;;;;;;;;12882250;22;20054;-73
2023/11/20 12:56:37;;;;;;;11.85;10.50;;;;;;;;;;12881976;22;20030;-72
2023/11/20 13:01:33;;;;;;;10.55;9.40;;;;;;;;;;12885618;22;20727;-72
2023/11/20 13:06:30;;;;;;;8.88;7.97;;;;;;;;;;12884380;22;20053;-72
2023/11/20 13:11:26;;;;;;;10.15;8.30;;;;;;;;;;12884078;22;20372;-72
2023/11/20 13:16:22;;;;;;;13.93;10.55;;;;;;;;;;12884978;22;20432;-72
2023/11/20 13:21:20;;;;;;;12.52;10.95;;;;;;;;;;12879094;22;20068;-73
2023/11/20 13:26:17;;;;;;;14.52;11.60;;;;;;;;;;12884843;22;20027;-72
2023/11/20 13:31:14;;;;;;;12.77;11.43;;;;;;;;;;12883728;22;20091;-72
2023/11/20 13:36:11;;;;;;;12.38;9.82;;;;;;;;;;12885081;22;20483;-71
2023/11/20 13:41:07;;;;;;;10.98;9.93;;;;;;;;;;12886445;22;20037;-72
2023/11/20 13:46:05;;;;;;;12.65;11.00;;;;;;;;;;12889197;22;20405;-73
2023/11/20 13:51:05;;;;;;;13.07;11.63;;;;;;;;;;12888234;22;20062;-72
2023/11/20 13:56:03;;;;;;;14.07;11.02;;;;;;;;;;12888332;22;20023;-73
2023/11/20 14:01:00;;;;;;;11.55;10.45;;;;;;;;;;12888902;22;20030;-73
2023/11/20 14:05:57;;;;;;;11.45;10.32;;;;;;;;;;12888885;22;20080;-72
2023/11/20 14:10:58;;;;;;;11.07;10.07;;;;;;;;;;12886600;22;20359;-72
2023/11/20 14:15:55;;;;;;;9.73;8.93;;;;;;;;;;12887383;22;20143;-73
2023/11/20 14:20:52;;;;;;;9.95;9.00;;;;;;;;;;12881435;22;20084;-72
2023/11/20 14:25:48;;;;;;;10.07;9.10;;;;;;;;;;12887194;22;20029;-72
2023/11/20 14:31:06;;;;;;;9.55;8.55;;;;;;;;;;12886424;22;20053;-72
2023/11/20 14:36:03;;;;;;;9.45;8.55;;;;;;;;;;12888193;22;20033;-72
2023/11/20 14:41:00;;;;;;;10.38;9.38;;;;;;;;;;12887183;22;20023;-72
2023/11/20 14:45:56;;;;;;;10.60;9.50;;;;;;;;;;12887999;22;20026;-73
2023/11/20 14:50:52;;;;;;;11.88;10.77;;;;;;;;;;12858753;22;20452;-72
2023/11/20 14:55:51;;;;;;;12.80;11.50;;;;;;;;;;12860408;22;20015;-72
2023/11/20 15:00:47;;;;;;;12.82;11.57;;;;;;;;;;12886140;22;20487;-73
2023/11/20 15:05:43;;;;;;;12.25;10.98;;;;;;;;;;12887647;22;20023;-72
2023/11/20 15:10:40;;;;;;;11.30;10.30;;;;;;;;;;12886491;22;20084;-72
2023/11/20 15:15:36;;;;;;;12.52;10.73;;;;;;;;;;12887830;22;20022;-73
2023/11/20 15:20:33;;;;;;;11.52;10.32;;;;;;;;;;12880493;22;20085;-72
2023/11/20 15:25:29;;;;;;;10.65;9.68;;;;;;;;;;12886768;22;20080;-72
2023/11/20 15:30:25;;;;;;;10.50;9.60;;;;;;;;;;12884645;22;20358;-70
2023/11/20 15:35:22;;;;;;;11.45;10.40;;;;;;;;;;12883084;22;20057;-72
2023/11/20 15:40:19;;;;;;;11.18;10.27;;;;;;;;;;12876240;22;20018;-73
2023/11/20 15:45:15;;;;;;;12.48;11.38;;;;;;;;;;12886664;22;20077;-73
2023/11/20 15:50:12;;;;;;;15.18;12.38;;;;;;;;;;12885484;22;20069;-72
2023/11/20 15:55:10;;;;;;;14.60;13.23;;;;;;;;;;12886242;22;20105;-72
2023/11/20 16:00:11;;;;;;;13.57;12.27;;;;;;;;;;12884002;22;20023;-72
2023/11/20 16:05:08;;;;;;;12.88;11.68;;;;;;;;;;12883671;22;20023;-72
2023/11/20 16:10:06;;;;;;;13.20;11.98;;;;;;;;;;12882396;22;20456;-72
2023/11/20 16:15:04;;;;;;;14.55;13.05;;;;;;;;;;12883860;22;20026;-71
2023/11/20 16:20:00;;;;;;;16.08;14.38;;;;;;;;;;12885719;22;20029;-72
2023/11/20 16:24:57;;;;;;;15.50;14.23;;;;;;;;;;12877640;22;20064;-71
2023/11/20 16:29:53;;;;;;;13.95;12.65;;;;;;;;;;12881851;22;20472;-72
2023/11/20 16:34:50;;;;;;;13.60;12.38;;;;;;;;;;12883056;22;20048;-73
2023/11/20 16:39:46;;;;;;;12.50;11.35;;;;;;;;;;12881886;22;20089;-72
2023/11/20 16:44:42;;;;;;;13.80;12.57;;;;;;;;;;12884617;22;20022;-72
2023/11/20 16:49:39;;;;;;;14.75;13.00;;;;;;;;;;12882641;22;20027;-72
2023/11/20 16:54:36;;;;;;;16.00;14.50;;;;;;;;;;12883041;22;20088;-71
2023/11/20 16:59:33;;;;;;;15.23;13.73;;;;;;;;;;12876505;22;20029;-71
2023/11/20 17:04:30;;;;;;;17.55;15.75;;;;;;;;;;12880603;22;20398;-71
2023/11/20 17:09:26;;;;;;;16.98;15.25;;;;;;;;;;12884451;22;20122;-71
2023/11/20 17:14:24;;;;;;;16.30;14.70;;;;;;;;;;12883459;22;20403;-70
2023/11/20 17:19:22;;;;;;;17.75;16.05;;;;;;;;;;12881421;22;20096;-70
2023/11/20 17:24:19;;;;;;;19.00;16.92;;;;;;;;;;12883586;22;20029;-70
2023/11/20 17:29:15;;;;;;;18.33;16.52;;;;;;;;;;12877701;22;20130;-71
2023/11/20 17:34:13;;;;;;;18.40;16.45;;;;;;;;;;12870527;22;20023;-71
2023/11/20 17:39:13;;;;;;;18.35;16.65;;;;;;;;;;12874166;22;20026;-72
2023/11/20 17:44:11;;;;;;;20.20;18.08;;;;;;;;;;12878802;22;20076;-71
2023/11/20 17:49:07;;;;;;;20.80;17.77;;;;;;;;;;12879003;22;20027;-71
2023/11/20 17:54:05;;;;;;;22.20;18.48;;;;;;;;;;12874121;22;20110;-71
2023/11/20 17:59:02;;;;;;;21.33;17.00;;;;;;;;;;12867320;22;20066;-71
2023/11/20 18:03:59;;;;;;;18.35;16.58;;;;;;;;;;12869262;22;20026;-72
2023/11/20 18:08:55;;;;;;;20.58;16.13;;;;;;;;;;12870882;22;20027;-72
2023/11/20 18:13:52;;;;;;;18.15;16.35;;;;;;;;;;12876645;22;20021;-71
2023/11/20 18:18:49;;;;;;;21.20;18.50;;;;;;;;;;12880238;22;20068;-72
2023/11/20 18:23:45;;;;;;;19.15;15.15;;;;;;;;;;12881267;22;20046;-72
2023/11/20 18:28:42;;;;;;;12.00;9.45;;;;;;;;;;12871729;22;20019;-72
2023/11/20 18:33:39;;;;;;;9.38;8.57;;;;;;;;;;12872799;22;20031;-71
2023/11/20 18:38:35;;;;;;;8.30;5.85;;;;;;;;;;12878625;22;20117;-72
2023/11/20 18:43:32;;;;;;;7.47;6.72;;;;;;;;;;12881323;22;20027;-72
2023/11/20 18:48:28;;;;;;;9.35;6.00;;;;;;;;;;12882367;22;20396;-71
2023/11/20 18:53:25;;;;;;;10.07;6.13;;;;;;;;;;12883016;22;20023;-71
2023/11/20 18:58:22;;;;;;;8.43;5.38;;;;;;;;;;12880957;22;20031;-72
2023/11/20 19:03:18;;;;;;;8.50;6.18;;;;;;;;;;12853394;22;20053;-71
2023/11/20 19:08:15;;;;;;;10.20;5.97;;;;;;;;;;12880566;22;20065;-71
2023/11/20 19:13:12;;;;;;;10.55;6.05;;;;;;;;;;12867413;22;20026;-72
2023/11/20 19:18:10;;;;;;;13.52;8.82;;;;;;;;;;12846572;22;20117;-71
2023/11/20 19:23:07;;;;;;;7.63;6.45;;;;;;;;;;12879880;22;20033;-71
2023/11/20 19:28:04;;;;;;;10.98;6.22;;;;;;;;;;12879088;22;20029;-71
2023/11/20 19:33:05;;;;;;;16.88;9.13;;;;;;;;;;12882731;22;20023;-72
2023/11/20 19:38:01;;;;;;;9.73;6.28;;;;;;;;;;12883080;22;20022;-71
2023/11/20 19:42:58;;;;;;;12.13;6.72;;;;;;;;;;12883273;22;20467;-71
2023/11/20 19:47:56;;;;;;;7.47;6.07;;;;;;;;;;12847668;22;20019;-71
2023/11/20 19:52:52;;;;;;;8.63;6.47;;;;;;;;;;12882440;22;20482;-71
2023/11/20 19:57:48;;;;;;;9.60;6.53;;;;;;;;;;12884307;22;20027;-72
2023/11/20 20:02:46;;;;;;;7.13;6.38;;;;;;;;;;12855120;22;20019;-71
2023/11/20 20:07:44;;;;;;;7.10;6.07;;;;;;;;;;12882026;22;20415;-71
2023/11/20 20:12:41;;;;;;;7.90;4.82;;;;;;;;;;12882633;22;20018;-71
2023/11/20 20:17:37;;;;;;;7.32;5.68;;;;;;;;;;12882818;22;20027;-71
2023/11/20 20:22:35;;;;;;;6.13;5.53;;;;;;;;;;12881303;22;20383;-72
2023/11/20 20:27:32;;;;;;;7.43;5.20;;;;;;;;;;12877891;22;20076;-72
2023/11/20 20:32:28;;;;;;;6.07;5.47;;;;;;;;;;12850005;22;20030;-71
2023/11/20 20:37:26;;;;;;;7.70;5.50;;;;;;;;;;12879351;22;20035;-71
2023/11/20 20:42:22;;;;;;;11.23;4.93;;;;;;;;;;12854253;22;20070;-71
2023/11/20 20:47:19;;;;;;;6.00;5.50;;;;;;;;;;12881035;22;20025;-71
2023/11/20 20:52:15;;;;;;;6.00;5.40;;;;;;;;;;12834713;22;20022;-71
2023/11/20 20:57:12;;;;;;;7.80;5.65;;;;;;;;;;12873048;22;20030;-68
2023/11/20 21:02:08;;;;;;;5.95;5.45;;;;;;;;;;12876098;22;20026;-68
2023/11/20 21:07:05;;;;;;;8.82;6.20;;;;;;;;;;12877104;22;20023;-68
2023/11/20 21:12:01;;;;;;;8.10;6.00;;;;;;;;;;12878833;22;20037;-68
2023/11/20 21:16:58;;;;;;;6.30;5.72;;;;;;;;;;12880838;22;20023;-67
2023/11/20 21:21:54;;;;;;;7.72;5.03;;;;;;;;;;12880779;22;20161;-69
2023/11/20 21:26:51;;;;;;;6.32;5.30;;;;;;;;;;12878525;22;20451;-69
2023/11/20 21:31:48;;;;;;;11.75;4.95;;;;;;;;;;12879851;22;20077;-67
2023/11/20 21:36:44;;;;;;;6.40;5.70;;;;;;;;;;12880687;22;20057;-66
2023/11/20 21:41:41;;;;;;;7.32;6.22;;;;;;;;;;12880830;22;20019;-67
2023/11/20 21:46:38;;;;;;;7.70;5.60;;;;;;;;;;12879400;22;20045;-67
2023/11/20 21:51:34;;;;;;;6.82;6.13;;;;;;;;;;12854327;22;20033;-68
2023/11/20 21:56:30;;;;;;;10.85;6.20;;;;;;;;;;12881134;22;20026;-68
2023/11/20 22:01:27;;;;;;;8.07;6.22;;;;;;;;;;12883121;22;20081;-67
2023/11/20 22:06:23;;;;;;;8.63;6.50;;;;;;;;;;12884795;22;20670;-66
2023/11/20 22:11:21;;;;;;;8.52;7.22;;;;;;;;;;12883921;22;20069;-67
2023/11/20 22:16:17;;;;;;;10.18;7.50;;;;;;;;;;12884459;22;20022;-67
2023/11/20 22:21:14;;;;;;;8.77;7.88;;;;;;;;;;12885395;22;20022;-67
2023/11/20 22:26:10;;;;;;;14.18;7.80;;;;;;;;;;12878825;22;20435;-67
2023/11/20 22:31:07;;;;;;;13.18;9.07;;;;;;;;;;12884915;22;20026;-68
2023/11/20 22:36:04;;;;;;;14.10;9.38;;;;;;;;;;12885264;22;20084;-68
2023/11/20 22:41:01;;;;;;;13.18;11.35;;;;;;;;;;12884960;22;20053;-68
2023/11/20 22:45:58;;;;;;;13.30;11.18;;;;;;;;;;12884897;22;20041;-68
2023/11/20 22:50:55;;;;;;;16.23;13.32;;;;;;;;;;12882717;22;20019;-68
2023/11/20 22:55:52;;;;;;;20.23;13.95;;;;;;;;;;12883183;22;20041;-68
2023/11/20 23:00:49;;;;;;;19.88;14.13;;;;;;;;;;12882971;22;20015;-68
2023/11/20 23:05:45;;;;;;;24.52;15.35;;;;;;;;;;12883796;22;20026;-68
2023/11/20 23:10:42;;;;;;;26.00;15.35;;;;;;;;;;12882240;22;20026;-68
2023/11/20 23:15:39;;;;;;;30.90;15.35;;;;;;;;;;12885350;22;20072;-68
2023/11/20 23:20:36;;;;;;;29.83;15.95;;;;;;;;;;12877766;22;20019;-68
2023/11/20 23:25:33;;;;;;;30.92;17.35;;;;;;;;;;12884686;22;20026;-68
2023/11/20 23:30:30;;;;;;;26.83;16.95;;;;;;;;;;12884130;22;20096;-68
2023/11/20 23:35:26;;;;;;;24.75;16.10;;;;;;;;;;12884633;22;20023;-68
2023/11/20 23:40:23;;;;;;;23.02;16.15;;;;;;;;;;12881713;22;20053;-69
2023/11/20 23:45:19;;;;;;;22.20;14.60;;;;;;;;;;12882515;22;20099;-67
2023/11/20 23:50:16;;;;;;;18.10;13.95;;;;;;;;;;12877247;22;20464;-68
2023/11/20 23:55:12;;;;;;;21.90;13.32;;;;;;;;;;12884417;22;20566;-68
